Terminal Aerodrome Forecast
Issued by NWS Wichita, KS

Home | Current Version | Previous Version | Graphics & Text | Print | Product List | Glossary On
Versions: 1 2 3 4 5 6 7 8 9 10 11 12 13 14 15 16 17 18 19 20 21
000
FTUS43 KICT 210921 AAB
TAFICT
TAF AMD
KICT 210921Z 2109/2206 01004KT P6SM OVC007
     FM211200 VRB03KT 2SM BR OVC006
     FM211400 VRB03KT 3SM BR BKN012
     FM211500 VRB03KT P6SM SCT020
     FM211700 16005KT P6SM SKC=

USA.gov is the U.S. government's official web portal to all federal, state and local government web resources and services.